• Join FlightAware (Why Join?)
  • Login
  • US Flag 
12:39AM EDT


 

Airport Tracker/Info


-or-


 

Live Flight TrackerFlight Track Log ✈ UAL4336 ✈ 22-Apr-2013 ✈ KCMH - KIAH

Flight Track Log - Related Links

Times and Time Zones

All times are in EDT time to prevent confusion due to time zone crossing. See the UAL4336 flight status page for this flight to view local times or setup timezone preferences in your user account.

Time Position Orientation Groundspeed Altitude Reporting Facility
EDT Latitude Longitude Course Direction KTS MPH feet Rate Location/Type
06:23AM 40.0008 -82.8747 270° West 159 183 1,300  Level Indianapolis Center
06:24AM 40.0022 -82.8203 88° East 186 214 2,900 1,800 Climbing Indianapolis Center
06:24AM 40.0058 -82.7886 82° East 189 217 3,700 2,040 Climbing Indianapolis Center
06:25AM 40.0531 -82.7936 355° North 213 245 6,000 1,740 Climbing Indianapolis Center
06:26AM 40.0000 -83.2868 270° West  Level FlightAware Approximate
06:26AM 40.0556 -82.8803 272° West 240 276 7,300  Level Indianapolis Center
06:27AM 40.0000 -83.4221 270° West  Level FlightAware Approximate
06:27AM 40.0608 -82.9744 274° West 255 293 9,100  Level Indianapolis Center
06:28AM 40.0000 -83.5574 270° West  Level FlightAware Approximate
06:28AM 40.0219 -83.0672 241° Southwest 287 330 10,300  Level Indianapolis Center
06:29AM 39.9731 -83.1683 238° Southwest 323 372 11,000 960 Climbing Indianapolis Center
06:30AM 39.9203 -83.2775 238° Southwest 349 402 12,300 1,320 Climbing Indianapolis Center
06:31AM 39.8672 -83.3872 238° Southwest 352 405 13,700 1,260 Climbing Indianapolis Center
06:32AM 39.8194 -83.4861 238° Southwest 352 405 14,900 1,080 Climbing Indianapolis Center
06:33AM 39.7656 -83.5958 237° Southwest 358 412 15,900 1,020 Climbing Indianapolis Center
06:34AM 39.7108 -83.7078 238° Southwest 362 417 17,000 1,020 Climbing Indianapolis Center
06:35AM 39.6550 -83.8208 237° Southwest 367 422 18,000 840 Climbing Indianapolis Center
06:36AM 39.5997 -83.9333 237° Southwest 368 423 18,700 780 Climbing Indianapolis Center
06:37AM 39.5433 -84.0458 237° Southwest 368 423 19,700 960 Climbing Indianapolis Center
06:38AM 39.4869 -84.1606 238° Southwest 373 429 20,700 960 Climbing Indianapolis Center
06:39AM 39.4294 -84.2758 237° Southwest 377 434 21,700 900 Climbing Indianapolis Center
06:41AM 39.3711 -84.3900 237° Southwest 377 434 22,600 900 Climbing Indianapolis Center
06:42AM 39.3142 -84.5067 238° Southwest 380 437 23,600 960 Climbing Indianapolis Center
06:43AM 39.2550 -84.6189 236° Southwest 375 432 24,600 960 Climbing Indianapolis Center
06:44AM 39.1997 -84.7325 238° Southwest 370 426 25,600 960 Climbing Indianapolis Center
06:45AM 39.1425 -84.8431 236° Southwest 369 425 26,600 960 Climbing Indianapolis Center
06:46AM 39.0881 -84.9514 237° Southwest 365 420 27,600 900 Climbing Indianapolis Center
06:47AM 39.0328 -85.0603 237° Southwest 362 417 28,500 840 Climbing Indianapolis Center
06:48AM 38.9772 -85.1678 236° Southwest 361 415 29,400 900 Climbing Indianapolis Center
06:49AM 38.9219 -85.2750 236° Southwest 358 412 30,400 1,020 Climbing Indianapolis Center
06:50AM 38.8556 -85.4028 236° Southwest 358 412 31,500 960 Climbing Indianapolis Center
06:51AM 38.7964 -85.5050 233° Southwest 356 410 32,400 900 Climbing Indianapolis Center
06:52AM 38.7294 -85.6011 228° Southwest 359 413 33,400 900 Climbing Indianapolis Center
06:53AM 38.6622 -85.6953 228° Southwest 358 412 34,300 780 Climbing Indianapolis Center
06:54AM 38.5967 -85.7878 228° Southwest 350 403 35,000 360 Climbing Indianapolis Center
06:55AM 38.5308 -85.8847 229° Southwest 357 411 35,100 480 Climbing Indianapolis Center
06:56AM 38.4617 -85.9819 228° Southwest 366 421 36,000 420 Climbing Indianapolis Center
06:57AM 38.3939 -86.0778 228° Southwest 363 418 36,000  Level Indianapolis Center
06:58AM 38.3233 -86.1786 228° Southwest 377 434 36,000  Level Indianapolis Center
06:59AM 38.2506 -86.2831 228° Southwest 389 448 36,000  Level Indianapolis Center
07:00AM 38.1747 -86.3878 227° Southwest 398 458 36,000  Level Indianapolis Center
07:01AM 38.0986 -86.4944 228° Southwest 402 463 36,000  Level Indianapolis Center
07:02AM 38.0233 -86.6003 228° Southwest 400 460 36,000  Level Indianapolis Center
07:03AM 37.9475 -86.7050 227° Southwest 399 459 36,000  Level Indianapolis Center
07:04AM 37.8722 -86.8092 228° Southwest 396 456 36,000  Level Indianapolis Center
07:05AM 37.7975 -86.9133 228° Southwest 395 455 36,000  Level Indianapolis Center
07:06AM 37.7225 -87.0167 227° Southwest 395 455 36,000  Level Indianapolis Center
07:07AM 37.6472 -87.1186 227° Southwest 393 452 36,000  Level Indianapolis Center
07:08AM 37.5675 -87.2278 227° Southwest 397 457 36,000  Level Indianapolis Center
07:09AM 37.4917 -87.3294 227° Southwest 397 457 36,000  Level Indianapolis Center
07:10AM 37.4158 -87.4328 227° Southwest 398 458 36,000  Level Indianapolis Center
07:11AM 37.3397 -87.5381 228° Southwest 402 463 36,000  Level Indianapolis Center
07:12AM 37.2617 -87.6417 227° Southwest 405 466 36,000  Level Indianapolis Center
07:13AM 37.1831 -87.7483 227° Southwest 410 472 36,000  Level Indianapolis Center
07:14AM 37.1042 -87.8536 227° Southwest 411 473 36,000  Level Indianapolis Center
07:15AM 37.0256 -87.9600 227° Southwest 411 473 36,000  Level Indianapolis Center
07:16AM 36.9456 -88.0658 227° Southwest 413 475 36,000  Level Indianapolis Center
07:17AM 36.8664 -88.1708 227° Southwest 413 475 36,000  Level Indianapolis Center
07:18AM 36.7872 -88.2761 227° Southwest 413 475 36,000  Level Indianapolis Center
07:19AM 36.7017 -88.3953 228° Southwest 410 472 36,000  Level Memphis Center
07:20AM 36.6219 -88.4981 226° Southwest 410 472 36,000  Level Memphis Center
07:21AM 36.5422 -88.6006 226° Southwest 410 472 36,000  Level Memphis Center
07:22AM 36.4725 -88.6900 226° Southwest 410 472 36,000  Level Memphis Center
07:23AM 36.3928 -88.7972 227° Southwest 405 466 36,000  Level Memphis Center
07:24AM 36.3125 -88.8942 224° Southwest 405 466 36,000  Level Memphis Center
07:25AM 36.2325 -88.9983 226° Southwest 405 466 36,000  Level Memphis Center
07:26AM 36.1522 -89.1025 226° Southwest 405 466 36,000  Level Memphis Center
07:27AM 36.0739 -89.2039 226° Southwest 405 466 36,000  Level Memphis Center
07:28AM 35.9978 -89.3000 226° Southwest 405 466 36,000  Level Memphis Center
07:29AM 35.9214 -89.4008 227° Southwest 405 466 36,000  Level Memphis Center
07:30AM 35.8428 -89.4992 225° Southwest 405 466 36,000  Level Memphis Center
07:31AM 35.7642 -89.5972 225° Southwest 405 466 36,000  Level Memphis Center
07:32AM 35.6856 -89.7078 229° Southwest 405 466 36,000  Level Memphis Center
07:33AM 35.6089 -89.8028 225° Southwest 397 457 36,000  Level Memphis Center
07:34AM 35.5300 -89.9031 226° Southwest 397 457 36,000  Level Memphis Center
07:35AM 35.4511 -90.0028 226° Southwest 397 457 36,000  Level Memphis Center
07:36AM 35.3722 -90.1025 226° Southwest 402 463 36,000  Level Memphis Center
07:37AM 35.2931 -90.2019 226° Southwest 407 468 36,000  Level Memphis Center
07:38AM 35.2139 -90.2986 225° Southwest 407 468 36,000  Level Memphis Center
07:39AM 35.1367 -90.3978 226° Southwest 407 468 36,000  Level Memphis Center
07:40AM 35.0572 -90.4967 226° Southwest 407 468 36,000  Level Memphis Center
07:41AM 34.9842 -90.5800 223° Southwest 407 468 36,000  Level Memphis Center
07:42AM 34.9069 -90.6786 226° Southwest 407 468 36,000  Level Memphis Center
07:43AM 34.8294 -90.7744 225° Southwest 407 468 36,000  Level Memphis Center
07:44AM 34.7517 -90.8703 225° Southwest 407 468 36,000  Level Memphis Center
07:45AM 34.6719 -90.9683 225° Southwest 407 468 36,000  Level Memphis Center
07:46AM 34.5922 -91.0636 225° Southwest 407 468 36,000  Level Memphis Center
07:47AM 34.5167 -91.1561 225° Southwest 401 461 36,000  Level Memphis Center
07:48AM 34.4347 -91.2511 224° Southwest 406 467 36,000  Level Memphis Center
07:49AM 34.3503 -91.3533 225° Southwest 401 461 36,000  Level Memphis Center
07:50AM 34.2722 -91.4481 225° Southwest 401 461 36,000  Level Memphis Center
07:51AM 34.1922 -91.5400 224° Southwest 401 461 36,000  Level Memphis Center
07:52AM 34.1142 -91.6367 226° Southwest 406 467 36,000  Level Memphis Center
07:53AM 34.0506 -91.7236 229° Southwest 401 461 36,000  Level Memphis Center
07:54AM 33.9703 -91.8150 223° Southwest 401 461 36,000  Level Memphis Center
07:55AM 33.8919 -91.9036 223° Southwest 396 456 36,000  Level Memphis Center
07:57AM 33.7014 -92.1333 225° Southwest 399 459 36,000  Level Fort Worth Center
07:58AM 33.5931 -92.1922 204° Southwest 416 479 36,000  Level Fort Worth Center
07:59AM 33.4758 -92.2289 195° South 423 487 36,000  Level Fort Worth Center
08:00AM 33.3519 -92.2636 193° South 435 501 36,000  Level Fort Worth Center
08:01AM 33.2303 -92.3003 194° South 454 522 36,000  Level Fort Worth Center
08:02AM 33.1086 -92.3372 194° South 454 522 36,000  Level Fort Worth Center
08:03AM 32.9850 -92.3714 193° South 454 522 36,000  Level Fort Worth Center
08:04AM 32.8633 -92.4081 194° South 454 522 36,000  Level Fort Worth Center
08:05AM 32.7436 -92.4442 194° South 449 517 36,000  Level Fort Worth Center
08:06AM 32.6239 -92.4806 194° South 449 517 36,000  Level Fort Worth Center
08:09AM 32.3717 -92.5608 195° South 440 506 36,000  Level Houston Center
08:10AM 32.2531 -92.5969 194° South 440 506 36,000  Level Houston Center
08:11AM 32.1344 -92.6322 194° South 440 506 36,000  Level Houston Center
08:12AM 32.0153 -92.6675 194° South 441 507 36,000  Level Houston Center
08:13AM 31.9144 -92.7342 209° Southwest 418 481 36,000  Level Houston Center
08:14AM 31.8275 -92.8206 220° Southwest 411 473 36,000  Level Houston Center
08:15AM 31.7403 -92.9039 219° Southwest 408 470 36,000  Level Houston Center
08:16AM 31.6550 -92.9858 219° Southwest 400 460 36,000  Level Houston Center
08:17AM 31.5706 -93.0675 219° Southwest 395 455 36,000  Level Houston Center
08:18AM 31.4683 -93.1650 219° Southwest 396 456 36,000  Level Houston Center
08:19AM 31.3839 -93.2456 219° Southwest 394 453 36,000 -300 Level Houston Center
08:20AM 31.2881 -93.3217 214° Southwest 401 461 35,500 -960 Descending Houston Center
08:21AM 31.1725 -93.3286 183° South 445 512 34,100 -1,500 Descending Houston Center
08:22AM 31.0422 -93.3111 173° South 467 537 32,500 -1,560 Descending Houston Center
08:23AM 30.9128 -93.2978 175° South 467 537 31,000 -1,500 Descending Houston Center
08:24AM 30.7875 -93.2858 175° South 454 522 29,500 -1,500 Descending Houston Center
08:25AM 30.6647 -93.3006 186° South 450 518 28,000 -1,680 Descending Houston Center
08:26AM 30.5206 -93.3486 196° South 443 510 26,100 -1,680 Descending Houston Center
08:27AM 30.4281 -93.4139 211° Southwest 404 465 24,600 -1,020 Descending Houston Center
08:28AM 30.3867 -93.5275 247° West 387 445 24,000 -300 Descending Houston Center
08:29AM 30.3631 -93.6361 256° West 383 441 24,000 -900 Level Houston Center
08:30AM 30.3372 -93.7528 256° West 377 434 22,200 -2,040 Descending Houston Center
08:31AM 30.3067 -93.8869 255° West 361 415 19,900 -2,100 Descending Houston Center
08:32AM 30.2817 -93.9950 255° West 350 403 18,000 -1,800 Descending Houston Center
08:33AM 30.2639 -94.0750 256° West 338 389 16,700 -1,800 Descending Houston Center
08:33AM 30.2581 -94.1008 255° West 342 394 16,200 -1,800 Descending Houston Center
08:33AM 30.2525 -94.1275 256° West 338 389 15,800 -1,680 Descending Houston Center
08:34AM 30.2339 -94.2058 255° West 338 389 14,500 -1,680 Descending Houston Center
08:35AM 30.2103 -94.3072 255° West 330 380 12,800 -1,800 Descending Houston Center
08:35AM 30.1992 -94.3522 254° West 320 368 12,100 -1,140 Descending Houston Center
08:36AM 30.1828 -94.4017 249° West 314 361 11,700 -1,260 Descending Houston Center
08:37AM 30.1464 -94.4861 244° Southwest 297 342 10,000 -1,860 Descending Houston Center
08:38AM 30.1297 -94.5233 243° Southwest 280 322 9,200 -2,220 Descending Houston Center
08:38AM 30.1086 -94.5814 247° West 281 323 7,800 -1,920 Descending Houston Center
08:39AM 30.0964 -94.6097 244° Southwest 276 318 7,300 -780 Descending Houston Center
08:39AM 30.0761 -94.6617 246° West 277 319 7,000 -300 Descending Houston Center
08:40AM 30.0683 -94.6908 253° West 271 312 7,000 -120 Level Houston Center
08:40AM 30.0539 -94.7447 253° West 274 315 6,900 -420 Descending Houston Center
08:41AM 30.0447 -94.7733 250° West 277 319 6,600 -840 Descending Houston Center
08:41AM 30.0325 -94.8289 256° West 274 315 6,100 -600 Descending Houston Center
08:42AM 30.0214 -94.8583 246° West 275 316 6,000 -120 Descending Houston Center
08:42AM 30.0056 -94.9100 251° West 273 314 6,000 60 Level Houston Center
08:43AM 30.0047 -94.9475 269° West 270 311 6,100 -240 Climbing Houston Center
08:43AM 30.0078 -94.9975 274° West 268 308 5,800 -840 Descending Houston Center
08:44AM 30.0083 -95.0314 271° West 266 306 5,300 -1,320 Descending Houston Center
08:44AM 30.0078 -95.0750 269° West 258 297 4,500 -1,320 Descending Houston Center
08:45AM 30.0069 -95.1064 268° West 231 266 4,000 -1,380 Descending Houston Center
08:45AM 30.0078 -95.1600 271° West 232 267 3,100 -1,200 Descending Houston Center
08:46AM 30.0069 -95.1739 266° West 210 242 2,800 -1,200 Descending Houston Center